M I D A S
Marine Information and Data Acquisition System
Tripno 557 of the Zeeleeuw from 2003-08-27 06:17:15 to 2003-08-27 12:06:54
Back to CruiseResearch ActivitiesStationsMapUnderway DataData graphs

EquipmentUnitsComment
TimeDGPSUTC
LatitudeDGPSDM.mWGS84
LongitudeDGPSDM.mWGS84
HeadingGyrodeg 
SOGDGPSknotsSpeed over ground
COGDGPSdegCourse over ground
DepthEcho soundermeters200 kHz
Missing or incorrect values are displayed as -999
Navigation data collected by the RV Zeeleeuw from 2003-08-27 06:17:15 to 2003-08-27 12:06:54
Time Latitude Longitude Heading SOG COG Depth
2003-08-27 06:18:17 51°13.6 2°56.11 122.3   193 6.5
2003-08-27 06:19:21 51°13.59 2°56.11 118.8   206 6.5
2003-08-27 06:20:21 51°13.6 2°56.11 120 0.1 16 6.6
2003-08-27 06:21:21 51°13.6 2°56.11 123.3   34 6.5
2003-08-27 06:22:21 51°13.6 2°56.11 124.8   353 6.5
2003-08-27 06:23:21 51°13.6 2°56.11 125.2   143 6.5
2003-08-27 06:24:21 51°13.6 2°56.11 119.8   190 6.6
2003-08-27 06:25:25 51°13.6 2°56.1 114.7 1.8 293 6.3
2003-08-27 06:26:25 51°13.62 2°56.01 115.8 4.7 291 -999
2003-08-27 06:27:25 51°13.65 2°55.88 123.2 5.6 297 -999
2003-08-27 06:28:29 51°13.68 2°55.82 113.1 0.3 323 9.2
2003-08-27 06:29:35 51°13.68 2°55.78 90 2.2 267 -999
2003-08-27 06:30:33 51°13.68 2°55.76 64.6 0.4 59 12.1
2003-08-27 06:31:33 51°13.71 2°55.77 3 2.5 357 12.6
2003-08-27 06:32:37 51°13.77 2°55.7 323.3 6.5 319 9.6
2003-08-27 06:33:49 51°13.9 2°55.58 340.9 7.6 335 10
2003-08-27 06:34:49 51°14.01 2°55.5 342.2 7.5 337 9.7
2003-08-27 06:35:49 51°14.13 2°55.42 340.7 7.6 335 9.8
2003-08-27 06:36:53 51°14.25 2°55.29 327.4 9 321 10
2003-08-27 06:38:03 51°14.37 2°55.07 312.7 9.7 307 10
2003-08-27 06:39:07 51°14.48 2°54.85 324.7 10 314 -999
2003-08-27 06:40:07 51°14.61 2°54.67 334.2 11.2 322 8.4
2003-08-27 06:41:09 51°14.78 2°54.51 350.2 11.3 340 8.5
2003-08-27 06:42:13 51°14.97 2°54.37 341.8 11.4 331 7.7
2003-08-27 06:43:13 51°15.14 2°54.22 344.1 11.9 331 7.9
2003-08-27 06:44:17 51°15.32 2°54.05 343.6 12.1 331 8.5
2003-08-27 06:45:21 51°15.51 2°53.88 342.5 12.2 329 9.4
2003-08-27 06:46:25 51°15.69 2°53.69 343.3 12.1 330 10
2003-08-27 06:47:25 51°15.87 2°53.53 341.6 12.2 327 10.8
2003-08-27 06:48:31 51°16.06 2°53.34 341.1 12.1 328 11
2003-08-27 06:49:33 51°16.23 2°53.16 342.5 12.4 329 11.5
2003-08-27 06:50:39 51°16.43 2°52.98 344.3 12.5 333 11.3
2003-08-27 06:51:37 51°16.61 2°52.82 342.3 12.5 331 10.4
2003-08-27 06:52:37 51°16.79 2°52.66 342.2 12 333 8.9
2003-08-27 06:53:49 51°17.01 2°52.54 352.2 12 341 8.8
2003-08-27 06:54:49 51°17.21 2°52.44 355.2 12 346 9.2
2003-08-27 06:55:53 51°17.41 2°52.38 359.6 12 349 9.2
2003-08-27 06:56:53 51°17.61 2°52.32 359.9 11.9 348 9.4
2003-08-27 06:57:53 51°17.8 2°52.25 0.2 12 349 9.4
2003-08-27 06:58:57 51°18.01 2°52.21 5.5 11.8 354 9.8
2003-08-27 06:59:55 51°18.2 2°52.22 25 11.3 19 10.1
2003-08-27 07:01:09 51°18.39 2°52.42 55.8 11.1 53 10.5
2003-08-27 07:02:21 51°18.49 2°52.74 68.9 11.5 67 10.5
2003-08-27 07:03:21 51°18.56 2°53.02 70.5 11.7 68 10.6
2003-08-27 07:04:33 51°18.65 2°53.37 72 11.5 72 10.8
2003-08-27 07:05:37 51°18.71 2°53.67 70.6 11.4 71 10.7
2003-08-27 07:06:57 51°18.8 2°54.05 71.7 11.6 71 10.6
2003-08-27 07:08:01 51°18.87 2°54.36 71.2 11.6 69 10.5
2003-08-27 07:09:05 51°18.94 2°54.67 71.7 11.6 70 10.5
2003-08-27 07:10:09 51°19.02 2°54.98 71 11.8 69 10.5
2003-08-27 07:11:17 51°19.1 2°55.31 71.1 11.9 68 10.4
2003-08-27 07:12:17 51°19.17 2°55.61 71.3 12 69 10.5
2003-08-27 07:13:19 51°19.24 2°55.91 74.2 12 71 10.4
2003-08-27 07:14:27 51°19.32 2°56.25 73.5 11.9 70 10.3
2003-08-27 07:15:42 51°19.4 2°56.63 72.9 11.8 71 9.9
2003-08-27 07:16:50 51°19.47 2°56.97 70.5 11.9 68 10
2003-08-27 07:18:00 51°19.56 2°57.31 70.5 11.7 69 9.8
2003-08-27 07:19:12 51°19.65 2°57.65 70.8 11.7 68 9.8
2003-08-27 07:20:26 51°19.73 2°58 69.9 11.6 71 9.8
2003-08-27 07:21:34 51°19.82 2°58.33 70.5 11.6 66 9.7
2003-08-27 07:22:50 51°19.91 2°58.69 70 11.5 68 9.5
2003-08-27 07:24:02 51°19.99 2°59.03 70.5 11.6 65 9.4
2003-08-27 07:25:10 51°20.07 2°59.35 70.1 11.5 69 9.2
2003-08-27 07:26:24 51°20.16 2°59.69 70 11.4 70 9.2
2003-08-27 07:27:38 51°20.24 3°0.05 70.8 11.3 69 9.2
2003-08-27 07:28:56 51°20.33 3°0.41 69.6 11.5 68 8.9
2003-08-27 07:30:06 51°20.41 3°0.75 70.4 11.5 68 9
2003-08-27 07:31:10 51°20.49 3°1.05 70.4 11.6 68 9
2003-08-27 07:32:18 51°20.57 3°1.38 69.9 11.6 69 8.9
2003-08-27 07:33:18 51°20.63 3°1.67 69.7 11.8 69 9.1
2003-08-27 07:34:38 51°20.73 3°2.06 69.6 11.7 69 9.1
2003-08-27 07:35:52 51°20.82 3°2.42 69.8 11.8 69 9.2
2003-08-27 07:37:06 51°20.9 3°2.78 70.2 11.7 70 9.3
2003-08-27 07:38:14 51°20.98 3°3.11 69.6 11.8 68 9.4
2003-08-27 07:39:18 51°21.06 3°3.42 70.2 11.9 70 9.5
2003-08-27 07:40:34 51°21.15 3°3.79 69.4 11.9 70 9.4
2003-08-27 07:41:46 51°21.23 3°4.14 70.2 11.8 70 9.6
2003-08-27 07:43:02 51°21.32 3°4.51 70.5 11.8 72 9.8
2003-08-27 07:44:06 51°21.39 3°4.82 70.5 11.8 69 10.1
2003-08-27 07:45:14 51°21.47 3°5.15 69.9 11.8 70 10
2003-08-27 07:46:34 51°21.55 3°5.55 75.8 11.8 77 10.1
2003-08-27 07:47:54 51°21.62 3°5.96 76 12 75 10.1
2003-08-27 07:49:06 51°21.68 3°6.33 75.6 12.1 74 10.3
2003-08-27 07:50:06 51°21.74 3°6.64 75.6 12.3 73 10.6
2003-08-27 07:51:10 51°21.8 3°6.97 75.6 12.1 74 10.6
2003-08-27 07:52:14 51°21.86 3°7.3 74.7 12 74 10.9
2003-08-27 07:53:18 51°21.92 3°7.63 75.5 12 73 10.9
2003-08-27 07:54:26 51°21.98 3°7.98 75.4 12.1 77 10.9
2003-08-27 07:55:34 51°22.04 3°8.33 78 12.1 80 11.1
2003-08-27 07:56:44 51°22.08 3°8.7 82.5 12.2 82 11.5
2003-08-27 07:57:54 51°22.11 3°9.08 87.4 12.3 85 11.8
2003-08-27 07:59:10 51°22.14 3°9.49 83.1 12.3 80 12.3
2003-08-27 08:00:18 51°22.19 3°9.85 77.2 12.2 77 12.9
2003-08-27 08:01:26 51°22.26 3°10.2 69.3 12.2 66 13.6
2003-08-27 08:02:32 51°22.35 3°10.53 68.3 12.4 65 17.6
2003-08-27 08:03:32 51°22.43 3°10.83 70.5 12.3 65 15.2
2003-08-27 08:04:32 51°22.5 3°11.13 75.5 12.2 73 14.7
2003-08-27 08:05:50 51°22.57 3°11.54 76.6 12.2 76 14.4
2003-08-27 08:07:08 51°22.64 3°11.95 81 12.2 79 13.9
2003-08-27 08:08:18 51°22.68 3°12.32 81.2 12.4 77 13.2
2003-08-27 08:09:30 51°22.73 3°12.71 84.1 12.4 82 12.4
2003-08-27 08:10:34 51°22.76 3°13.06 83.4 12.5 82 11.7
2003-08-27 08:11:44 51°22.8 3°13.44 82.7 12.4 79 11
2003-08-27 08:13:02 51°22.84 3°13.87 82.6 12.5 81 10.3
2003-08-27 08:14:02 51°22.87 3°14.2 84.1 12.5 78 9.8
2003-08-27 08:15:10 51°23.05 3°14.31 1.4 12.3 353 10
2003-08-27 08:16:18 51°23.28 3°14.33 17.8 12.6 11 9.6
2003-08-27 08:17:24 51°23.51 3°14.35 12.4 12.7 4 11.2
2003-08-27 08:18:38 51°23.77 3°14.38 12.4 12.7 4 11.3
2003-08-27 08:19:50 51°24.03 3°14.41 12.5 12.7 5 10
2003-08-27 08:21:10 51°24.31 3°14.45 11.6 13 5 14.4
2003-08-27 08:22:12 51°24.53 3°14.41 345.7 13.1 335 18.4
2003-08-27 08:23:10 51°24.65 3°14.14 287.4 13.4 275 18.4
2003-08-27 08:24:22 51°24.61 3°13.71 266.3 13.8 261 17.6
2003-08-27 08:25:38 51°24.56 3°13.25 265.5 13.9 260 17.7
2003-08-27 08:26:54 51°24.51 3°12.78 266.5 14.2 260 17.8
2003-08-27 08:28:20 51°24.45 3°12.25 265.8 14 261 17.7
2003-08-27 08:29:30 51°24.4 3°11.82 267.2 14 260 17.7
2003-08-27 08:30:38 51°24.36 3°11.4 270 14 263 18.4
2003-08-27 08:31:42 51°24.32 3°11.01 270.8 14.2 261 18.1
2003-08-27 08:32:44 51°24.29 3°10.63 268.8 14 262 18.2
2003-08-27 08:33:50 51°24.26 3°10.22 270.5 13.8 264 18.1
2003-08-27 08:34:58 51°24.23 3°9.81 272.1 13.7 265 18.4
2003-08-27 08:36:06 51°24.2 3°9.4 271.4 13.8 264 18.5
2003-08-27 08:37:24 51°24.17 3°8.93 271.1 13.6 263 17.9
2003-08-27 08:38:34 51°24.14 3°8.51 272.5 13.5 264 18.1
2003-08-27 08:39:52 51°24.11 3°8.04 272.1 13.5 264 18.6
2003-08-27 08:41:02 51°24.09 3°7.62 274.2 13.5 266 18.4
2003-08-27 08:42:22 51°24.07 3°7.14 275 13.6 267 18.4
2003-08-27 08:43:22 51°24.07 3°6.78 275.3 13.6 268 18.3
2003-08-27 08:44:38 51°24.06 3°6.32 275.8 13.6 267 18.8
2003-08-27 08:45:50 51°24.05 3°5.89 276.9 13.5 272 19.2
2003-08-27 08:47:12 51°24.16 3°5.45 306.6 13.2 296 18.4
2003-08-27 08:48:24 51°24.28 3°5.06 304.1 13.3 295 18.3
2003-08-27 08:49:40 51°24.39 3°4.66 300.7 13.3 292 17.5
2003-08-27 08:50:56 51°24.5 3°4.24 301.4 13.4 291 17.3
2003-08-27 08:52:04 51°24.59 3°3.86 301.2 13.3 292 17.2
2003-08-27 08:53:22 51°24.7 3°3.44 300.7 13.3 291 17.6
2003-08-27 08:54:22 51°24.78 3°3.11 303 13.4 293 17.2
2003-08-27 08:55:24 51°24.9 3°2.8 317.1 13.1 307 15.1
2003-08-27 08:56:44 51°25.08 3°2.44 317.1 12.9 308 14.6
2003-08-27 08:58:00 51°25.24 3°2.09 316.3 12.9 307 13.5
2003-08-27 08:59:26 51°25.43 3°1.69 316.3 12.9 307 12.6
2003-08-27 09:00:26 51°25.56 3°1.42 317 13 307 12.7
2003-08-27 09:02:00 51°25.76 3°0.99 316.3 13.1 307 12.9
2003-08-27 09:03:10 51°25.92 3°0.68 327.9 12.9 319 14.1
2003-08-27 09:04:18 51°26.12 3°0.48 343.2 12.4 336 15.8
2003-08-27 09:05:22 51°26.33 3°0.36 350.7 12.2 340 21.2
2003-08-27 09:06:30 51°26.55 3°0.27 2.1 11.9 352 25
2003-08-27 09:07:34 51°26.76 3°0.21 0.6 11.8 350 25.2
2003-08-27 09:08:50 51°27 3°0.21 11 11.4 3 24.2
2003-08-27 09:09:50 51°27.19 3°0.23 11.3 11.7 3 24.4
2003-08-27 09:11:06 51°27.44 3°0.22 6 11.6 357 22.7
2003-08-27 09:12:10 51°27.65 3°0.21 6 11.7 357 21.5
2003-08-27 09:13:18 51°27.87 3°0.19 7.2 11.8 358 20.4
2003-08-27 09:14:22 51°28.08 3°0.2 10.8 11.8 3 20.8
2003-08-27 09:15:26 51°28.29 3°0.21 10.1 11.6 3 19.9
2003-08-27 09:16:30 51°28.5 3°0.22 11.6 11.9 3 21.4
2003-08-27 09:17:38 51°28.72 3°0.24 10.2 11.9 2 24.2
2003-08-27 09:18:46 51°28.95 3°0.25 9.4 11.9 2 26.6
2003-08-27 09:19:56 51°29.18 3°0.27 10.7 12 3 28.2
2003-08-27 09:21:10 51°29.43 3°0.28 9.9 12.1 2 29.6
2003-08-27 09:22:14 51°29.64 3°0.29 9.5 12 2 29
2003-08-27 09:23:22 51°29.87 3°0.31 9.3 12 1 28
2003-08-27 09:24:26 51°30.08 3°0.32 11.2 12 4 27.8
2003-08-27 09:25:38 51°30.32 3°0.37 13.4 12.1 6 27.7
2003-08-27 09:26:50 51°30.56 3°0.41 13.3 12.1 7 27.9
2003-08-27 09:27:58 51°30.79 3°0.46 14.3 12.3 7 27.7
2003-08-27 09:29:02 51°31 3°0.5 13.3 12.3 7 27.1
2003-08-27 09:30:20 51°31.27 3°0.55 12.4 12.2 6 27.1
2003-08-27 09:31:22 51°31.48 3°0.59 12.2 12.3 7 26.1
2003-08-27 09:32:46 51°31.76 3°0.64 13 12.3 6 24.2
2003-08-27 09:34:02 51°32.01 3°0.69 13 12 7 23.4
2003-08-27 09:35:12 51°32.24 3°0.73 12.6 12 7 25.8
2003-08-27 09:36:26 51°32.49 3°0.78 13.4 12.1 6 26.6
2003-08-27 09:37:26 51°32.69 3°0.81 13.6 12 6 30.2
2003-08-27 09:38:26 51°32.88 3°0.85 13 12.1 6 32.8
2003-08-27 09:39:30 51°33.1 3°0.89 12.5 12.1 6 33.6
2003-08-27 09:40:30 51°33.3 3°0.93 14.2 12.1 8 34.7
2003-08-27 09:41:38 51°33.52 3°0.97 13.5 12.1 7 34.3
2003-08-27 09:42:50 51°33.76 3°1.01 10.1 12.2 4 22.8
2003-08-27 09:43:58 51°33.98 3°1.04 5.8 12 1 14.4
2003-08-27 09:45:18 51°34.24 3°1.01 349.8 11.9 340 15.5
2003-08-27 09:46:26 51°34.44 3°0.84 328.5 12.2 316 16.7
2003-08-27 09:47:38 51°34.56 3°0.49 293.8 13.1 280 18.2
2003-08-27 09:48:42 51°34.52 3°0.11 254.9 14.3 245 22
2003-08-27 09:49:46 51°34.4 2°59.75 249.1 14.5 243 22.8
2003-08-27 09:51:04 51°34.23 2°59.33 242.4 14.3 234 23.7
2003-08-27 09:52:02 51°34.09 2°59.04 238.4 14.2 238 23.7
2003-08-27 09:53:06 51°33.94 2°58.71 240.1 14.3 231 19.6
2003-08-27 09:54:06 51°33.79 2°58.41 238.3 14.7 229 22.5
2003-08-27 09:55:12 51°33.62 2°58.09 235.8 14.2 226 20.6
2003-08-27 09:56:18 51°33.44 2°57.77 233.9 14.3 227 23.7
2003-08-27 09:57:22 51°33.27 2°57.47 231.4 14.6 230 22.4
2003-08-27 09:58:26 51°33.09 2°57.17 231.5 14.2 225 23.1
2003-08-27 09:59:32 51°32.9 2°56.87 231.9 14.6 227 24
2003-08-27 10:00:32 51°32.68 2°56.77 177.8 14 175 22.4
2003-08-27 10:01:34 51°32.44 2°56.83 173.4 14.9 171 21.9
2003-08-27 10:02:42 51°32.17 2°56.88 176.6 14.1 176 20.5
2003-08-27 10:03:46 51°31.91 2°56.94 174.3 14.8 172 18.4
2003-08-27 10:04:46 51°31.67 2°57 174.1 14.6 170 22.6
2003-08-27 10:05:54 51°31.4 2°57.06 177.8 14.4 172 33
2003-08-27 10:07:06 51°31.12 2°57.12 176.1 14.1 168 32.7
2003-08-27 10:08:22 51°30.84 2°57.01 219.4 13.7 215 31
2003-08-27 10:09:38 51°30.64 2°56.66 239.5 14.5 232 32
2003-08-27 10:10:42 51°30.5 2°56.33 241.3 14.7 234 31.8
2003-08-27 10:11:46 51°30.36 2°56 240.2 14 234 32.5
2003-08-27 10:12:50 51°30.23 2°55.67 246.7 14.2 237 32.1
2003-08-27 10:13:54 51°30.11 2°55.32 247.8 14.1 239 31.7
2003-08-27 10:14:58 51°29.98 2°54.98 244.8 14.2 242 32
2003-08-27 10:16:26 51°29.81 2°54.51 245.4 13.8 239 32.5
2003-08-27 10:17:24 51°29.75 2°54.18 273.8 13.5 267 32
2003-08-27 10:18:34 51°29.78 2°53.77 292.6 13.1 286 32.8
2003-08-27 10:19:46 51°29.91 2°53.41 313.3 12.9 310 33
2003-08-27 10:20:50 51°30.07 2°53.17 333.8 12.6 326 30.3
2003-08-27 10:22:02 51°30.29 2°52.97 336.2 12.7 328 30.5
2003-08-27 10:23:06 51°30.48 2°52.79 336.7 12.4 332 28.2
2003-08-27 10:24:10 51°30.67 2°52.62 336.7 12.2 331 22.8
2003-08-27 10:25:10 51°30.85 2°52.46 336.4 12.3 329 19.1
2003-08-27 10:26:16 51°30.95 2°52.15 283.5 12.8 274 21.2
2003-08-27 10:27:22 51°30.88 2°51.78 244.5 13.7 237 21.4
2003-08-27 10:28:22 51°30.75 2°51.48 242.4 13.9 237 22.7
2003-08-27 10:29:22 51°30.62 2°51.18 242.3 13.9 236 19.8
2003-08-27 10:30:26 51°30.49 2°50.85 238.7 13.7 235 21.8
2003-08-27 10:31:30 51°30.34 2°50.54 238.5 13.6 234 20.7
2003-08-27 10:32:46 51°30.17 2°50.17 238.7 13.6 234 24.2
2003-08-27 10:33:54 51°30.02 2°49.84 239.6 13.6 235 22.3
2003-08-27 10:34:58 51°29.88 2°49.53 237.3 14 238 21.7
2003-08-27 10:36:06 51°29.72 2°49.21 240.6 13.9 231 24.6
2003-08-27 10:37:18 51°29.57 2°48.86 240.8 13.3 232 26.9
2003-08-27 10:38:22 51°29.41 2°48.57 231.7 13.5 224 26.6
2003-08-27 10:39:24 51°29.23 2°48.33 224.3 13.6 223 27.3
2003-08-27 10:40:34 51°29.02 2°48.1 203.4 13.6 195 29.3
2003-08-27 10:41:34 51°28.8 2°48.17 155.7 13.6 148 31.5
2003-08-27 10:42:36 51°28.62 2°48.42 135.8 14.1 135 33.8
2003-08-27 10:43:38 51°28.47 2°48.71 132.2 13.6 130 29.5
2003-08-27 10:44:50 51°28.29 2°49.06 131.9 13.9 132 28.6
2003-08-27 10:45:50 51°28.15 2°49.34 132.8 13.4 133 30.4
2003-08-27 10:46:56 51°27.98 2°49.65 132.6 14 129 29.4
2003-08-27 10:47:58 51°27.83 2°49.94 133.8 13.8 134 28.8
2003-08-27 10:49:08 51°27.64 2°50.24 146.5 13.8 145 27.1
2003-08-27 10:50:14 51°27.4 2°50.33 190 13.1 192 25.2
2003-08-27 10:51:18 51°27.21 2°50.12 232.9 13.5 229 24.3
2003-08-27 10:52:18 51°27.08 2°49.83 242.6 13.2 239 24.3
2003-08-27 10:53:22 51°26.95 2°49.52 243.8 13.5 240 23.6
2003-08-27 10:54:30 51°26.82 2°49.17 247.1 13.5 241 24.4
2003-08-27 10:55:30 51°26.71 2°48.87 244.5 13.2 244 24.2
2003-08-27 10:56:38 51°26.58 2°48.52 246.2 13 236 24
2003-08-27 10:57:42 51°26.46 2°48.2 243.1 13.1 238 24.6
2003-08-27 10:58:46 51°26.34 2°47.88 244.5 13 240 24.7
2003-08-27 10:59:54 51°26.22 2°47.54 244.6 12.9 243 23.6
2003-08-27 11:01:06 51°26.09 2°47.18 244.9 12.8 236 23.4
2003-08-27 11:02:06 51°25.98 2°46.89 245.2 12.7 238 25.5
2003-08-27 11:03:06 51°25.87 2°46.59 244.4 12.8 243 26.5
2003-08-27 11:04:06 51°25.76 2°46.3 243 13.3 240 26.9
2003-08-27 11:05:16 51°25.63 2°45.96 237.4 12.7 228 26.2
2003-08-27 11:06:30 51°25.39 2°45.82 182.7 13.6 181 25.6
2003-08-27 11:08:02 51°25.05 2°45.84 190.1 13.6 182 26.9
2003-08-27 11:09:10 51°24.8 2°45.81 190.5 13 183 27
2003-08-27 11:10:18 51°24.55 2°45.79 187.8 13.4 181 27.9
2003-08-27 11:11:22 51°24.32 2°45.77 189.8 12.8 184 28.9
2003-08-27 11:12:30 51°24.07 2°45.75 189.9 12.8 181 28.9
2003-08-27 11:13:52 51°23.77 2°45.72 189.4 12.6 183 29.8
2003-08-27 11:15:06 51°23.51 2°45.69 188.2 13.2 185 29.6
2003-08-27 11:16:18 51°23.25 2°45.66 189.5 13.3 184 29.2
2003-08-27 11:17:26 51°23 2°45.63 190.2 13 182 29.1
2003-08-27 11:18:52 51°22.69 2°45.59 189.9 12.7 183 24
2003-08-27 11:20:06 51°22.42 2°45.57 188.8 13.5 184 25.9
2003-08-27 11:21:18 51°22.17 2°45.55 187 12.9 183 24.4
2003-08-27 11:22:34 51°21.89 2°45.53 188.7 13.4 186 24.5
2003-08-27 11:23:50 51°21.62 2°45.51 188.7 13 184 26.4
2003-08-27 11:25:12 51°21.33 2°45.49 189 12.4 176 28.4
2003-08-27 11:26:22 51°21.1 2°45.65 149.3 13.5 143 28.8
2003-08-27 11:27:30 51°20.89 2°45.9 150.1 13.8 144 27.8
2003-08-27 11:28:44 51°20.68 2°46.21 138.7 13.7 132 26.2
2003-08-27 11:29:46 51°20.52 2°46.49 142.9 14.1 137 21.3
2003-08-27 11:31:10 51°20.3 2°46.87 142.6 14.2 132 17.1
2003-08-27 11:32:42 51°20.05 2°47.29 139.5 13.5 135 23
2003-08-27 11:33:52 51°19.87 2°47.6 137.9 13 134 24.5
2003-08-27 11:35:34 51°19.61 2°48.05 139.9 13.6 133 24.6
2003-08-27 11:36:46 51°19.43 2°48.37 137.9 14 134 21.6
2003-08-27 11:37:58 51°19.24 2°48.7 140 13 136 18.7
2003-08-27 11:39:18 51°19.05 2°49.07 134.5 14 123 14.8
2003-08-27 11:40:34 51°18.87 2°49.44 134.3 14.3 124 13.7
2003-08-27 11:41:50 51°18.69 2°49.82 136 14.3 125 15.4
2003-08-27 11:43:02 51°18.52 2°50.16 137.6 14.5 128 16.9
2003-08-27 11:44:22 51°18.33 2°50.54 139.7 13.7 131 16.8
2003-08-27 11:45:34 51°18.15 2°50.88 137.9 13.6 130 15.8
2003-08-27 11:46:36 51°18 2°51.17 136.7 13.5 131 14.5
2003-08-27 11:47:54 51°17.81 2°51.54 137.2 13 132 13.2
2003-08-27 11:49:22 51°17.59 2°51.93 141.6 13.7 133 13.1
2003-08-27 11:50:34 51°17.38 2°52.17 160.2 12.7 153 13.1
2003-08-27 11:52:02 51°17.1 2°52.44 154.1 13 148 12.6
2003-08-27 11:53:26 51°16.84 2°52.71 156.3 12.8 150 12.4
2003-08-27 11:54:42 51°16.59 2°52.94 156.1 13.6 147 14.3
2003-08-27 11:55:56 51°16.36 2°53.16 158.1 13.5 150 15.2
2003-08-27 11:57:02 51°16.15 2°53.37 156.4 14.4 147 14.7
2003-08-27 11:58:10 51°15.93 2°53.58 158.8 13.9 150 14.4
2003-08-27 11:59:46 51°15.63 2°53.87 156 13.4 148 13.5
2003-08-27 12:01:02 51°15.39 2°54.09 158 12.6 149 12.6
2003-08-27 12:02:16 51°15.17 2°54.34 153.7 13.5 149 11.5
2003-08-27 12:03:36 51°14.93 2°54.59 161.8 12.7 148 11.9
2003-08-27 12:04:54 51°14.69 2°54.79 163.1 12.7 152 12.2
2003-08-27 12:06:14 51°14.45 2°54.98 160.8 11.7 147 12.7